createdAt,value
2023-04-19T00:00:22.529Z,12.25
2023-04-19T00:02:51.666Z,20.63
2023-04-19T00:05:20.642Z,38.90
2023-04-19T00:07:48.824Z,21.00
2023-04-19T00:10:17.962Z,17.77
2023-04-19T00:12:47.112Z,14.70
2023-04-19T00:15:15.375Z,14.60
2023-04-19T00:17:43.442Z,13.77
2023-04-19T00:20:51.959Z,13.85
2023-04-19T00:23:25.992Z,14.45
2023-04-19T00:25:55.481Z,14.93
2023-04-19T00:28:23.879Z,17.42
2023-04-19T00:30:51.968Z,17.73
2023-04-19T00:33:20.815Z,17.48
2023-04-19T00:35:49.747Z,17.02
2023-04-19T00:38:19.453Z,19.08
2023-04-19T00:40:47.628Z,23.75
2023-04-19T00:43:19.798Z,22.42
2023-04-19T00:45:48.264Z,22.85
2023-04-19T00:48:16.794Z,23.80
2023-04-19T00:50:47.505Z,27.05
2023-04-19T00:53:16.254Z,22.20
2023-04-19T00:55:47.807Z,20.08
2023-04-19T00:58:16.320Z,16.05
2023-04-19T01:00:44.603Z,15.95
2023-04-19T01:03:13.940Z,15.40
2023-04-19T01:05:42.378Z,14.45
2023-04-19T01:08:15.075Z,15.77
2023-04-19T01:10:43.042Z,15.20
2023-04-19T01:13:12.717Z,16.08
2023-04-19T01:15:40.579Z,17.05
2023-04-19T01:18:11.892Z,16.50
2023-04-19T01:20:43.927Z,18.83
2023-04-19T01:23:12.756Z,18.30
2023-04-19T01:25:41.413Z,18.13
2023-04-19T01:28:10.511Z,18.42
2023-04-19T01:30:38.501Z,19.05
2023-04-19T01:33:07.831Z,17.55
2023-04-19T01:35:37.565Z,20.90
2023-04-19T01:38:05.629Z,22.52
2023-04-19T01:40:33.714Z,23.23
2023-04-19T01:43:01.652Z,24.02
2023-04-19T01:45:30.557Z,25.10
2023-04-19T01:47:59.639Z,23.65
2023-04-19T01:50:35.573Z,22.02
2023-04-19T01:53:05.569Z,20.65
2023-04-19T01:55:34.613Z,19.02
2023-04-19T01:58:03.579Z,16.90
2023-04-19T02:00:34.083Z,13.90
2023-04-19T02:03:05.752Z,12.98
2023-04-19T02:05:34.321Z,11.18
2023-04-19T02:08:02.577Z,11.30
2023-04-19T02:10:32.126Z,10.63
2023-04-19T02:13:01.477Z,10.88
2023-04-19T02:15:29.576Z,13.35
2023-04-19T02:17:57.667Z,13.85
2023-04-19T02:20:25.750Z,14.35
2023-04-19T02:22:53.660Z,15.65
2023-04-19T02:25:29.500Z,14.50
2023-04-19T02:27:58.696Z,13.57
2023-04-19T02:30:26.764Z,13.85
2023-04-19T02:32:55.264Z,13.38
2023-04-19T02:35:23.313Z,13.68
2023-04-19T02:37:51.238Z,13.55
2023-04-19T02:40:19.658Z,13.30
2023-04-19T02:42:47.540Z,11.65
2023-04-19T02:45:15.493Z,11.77
2023-04-19T02:47:43.556Z,11.25
2023-04-19T02:50:12.097Z,11.27
2023-04-19T02:52:48.038Z,10.13
2023-04-19T02:55:16.665Z,9.23
2023-04-19T02:57:47.688Z,9.48
2023-04-19T03:00:17.188Z,8.98
2023-04-19T03:02:56.486Z,9.63
2023-04-19T03:05:24.650Z,9.73
2023-04-19T03:07:54.515Z,9.50
2023-04-19T03:10:22.527Z,11.93
2023-04-19T03:12:51.440Z,11.60
2023-04-19T03:15:20.754Z,11.18
2023-04-19T03:17:49.698Z,9.25
2023-04-19T03:20:19.257Z,9.00
2023-04-19T03:22:47.350Z,9.38
2023-04-19T03:25:18.022Z,8.93
2023-04-19T03:27:53.780Z,12.07
2023-04-19T03:30:36.846Z,14.18
2023-04-19T03:33:06.516Z,15.20
2023-04-19T03:35:34.785Z,14.15
2023-04-19T03:38:12.621Z,12.90
2023-04-19T03:40:40.813Z,13.45
2023-04-19T03:43:11.903Z,12.55
2023-04-19T03:45:40.549Z,11.73
2023-04-19T03:48:10.987Z,11.82
2023-04-19T03:50:41.923Z,11.98
2023-04-19T03:53:13.542Z,12.80
2023-04-19T03:55:41.643Z,12.50
2023-04-19T03:58:10.203Z,13.57
2023-04-19T04:00:50.980Z,13.55
2023-04-19T04:03:20.781Z,15.20
2023-04-19T04:05:49.239Z,14.25
2023-04-19T04:08:17.336Z,13.88
2023-04-19T04:10:45.270Z,14.77
2023-04-19T04:13:14.626Z,15.32
2023-04-19T04:15:51.683Z,16.08
2023-04-19T04:18:19.683Z,14.07
2023-04-19T04:20:48.332Z,13.40
2023-04-19T04:23:16.702Z,11.73
2023-04-19T04:25:59.429Z,12.32
2023-04-19T04:28:35.090Z,10.73
2023-04-19T04:31:04.817Z,11.10
2023-04-19T04:33:43.086Z,12.20
2023-04-19T04:36:20.814Z,11.88
2023-04-19T04:41:22.636Z,9.95
2023-04-19T04:44:04.647Z,9.43
2023-04-19T04:46:40.500Z,10.32
2023-04-19T04:49:10.743Z,9.48
2023-04-19T04:51:43.854Z,11.90
2023-04-19T04:54:12.401Z,10.25
2023-04-19T04:56:40.990Z,8.38
2023-04-19T04:59:09.914Z,10.00
2023-04-19T05:01:41.234Z,9.57
2023-04-19T05:04:12.900Z,10.00
2023-04-19T05:06:41.552Z,8.93
2023-04-19T05:09:11.935Z,8.30
2023-04-19T05:11:40.648Z,9.43
2023-04-19T05:14:08.720Z,9.23
2023-04-19T05:16:36.966Z,9.40
2023-04-19T05:19:06.176Z,9.18
2023-04-19T05:21:39.565Z,9.55
2023-04-19T05:24:10.253Z,8.80
2023-04-19T05:26:38.793Z,9.18
2023-04-19T05:29:07.985Z,9.68
2023-04-19T05:31:47.113Z,9.30
2023-04-19T05:34:36.973Z,10.20
2023-04-19T05:37:05.772Z,10.52
2023-04-19T05:39:34.078Z,11.00
2023-04-19T05:42:02.070Z,11.15
2023-04-19T05:44:30.148Z,10.90
2023-04-19T05:46:59.270Z,10.10
2023-04-19T05:49:53.163Z,8.82
2023-04-19T05:52:31.439Z,9.02
2023-04-19T05:55:01.633Z,9.63
2023-04-19T05:57:30.721Z,9.15
2023-04-19T06:02:47.858Z,9.35
2023-04-19T06:05:16.220Z,8.43
2023-04-19T06:07:54.541Z,9.55
2023-04-19T06:10:23.900Z,9.30
2023-04-19T06:12:52.001Z,8.40
2023-04-19T06:15:20.012Z,7.38
2023-04-19T06:17:48.271Z,7.95
2023-04-19T06:20:16.349Z,7.05
2023-04-19T06:22:45.512Z,6.28
2023-04-19T06:25:13.509Z,7.07
2023-04-19T06:27:41.660Z,7.05
2023-04-19T06:30:10.049Z,8.00
2023-04-19T06:32:38.274Z,6.78
2023-04-19T06:35:06.922Z,8.32
2023-04-19T06:37:35.914Z,7.22
2023-04-19T06:40:07.753Z,7.68
2023-04-19T06:42:38.044Z,6.20
2023-04-19T06:45:10.786Z,7.30
2023-04-19T06:47:38.845Z,6.75
2023-04-19T06:50:07.552Z,7.45
2023-04-19T06:52:42.826Z,7.55
2023-04-19T06:55:11.238Z,6.37
2023-04-19T06:58:44.587Z,5.90
2023-04-19T07:01:13.336Z,7.82
2023-04-19T07:03:42.115Z,7.13
2023-04-19T07:06:11.760Z,6.97
2023-04-19T07:11:16.621Z,6.50
2023-04-19T07:13:50.176Z,5.90
2023-04-19T07:16:18.428Z,7.55
2023-04-19T07:18:46.398Z,7.43
2023-04-19T07:21:14.711Z,6.18
2023-04-19T07:23:43.021Z,7.80
2023-04-19T07:26:18.199Z,6.28
2023-04-19T07:28:46.345Z,7.00
2023-04-19T07:31:20.368Z,6.25
2023-04-19T07:33:48.540Z,6.28
2023-04-19T07:36:19.051Z,5.55
2023-04-19T07:38:48.793Z,8.20
2023-04-19T07:41:18.711Z,11.55
2023-04-19T07:43:56.941Z,8.32
2023-04-19T07:46:29.025Z,7.28
2023-04-19T07:54:31.618Z,6.78
2023-04-19T07:58:06.567Z,6.03
2023-04-19T08:00:41.070Z,5.60
2023-04-19T08:03:16.951Z,6.25
2023-04-19T08:05:48.109Z,5.80
2023-04-19T08:08:17.198Z,5.72
2023-04-19T08:10:45.347Z,7.25
2023-04-19T08:13:21.031Z,12.07
2023-04-19T08:16:24.565Z,11.13
2023-04-19T08:18:39.149Z,10.18
2023-04-19T08:21:14.900Z,11.80
2023-04-19T08:23:48.513Z,8.13
2023-04-19T08:26:17.600Z,6.43
2023-04-19T08:28:46.528Z,11.65
2023-04-19T08:31:16.125Z,10.45
2023-04-19T08:33:44.216Z,9.32
2023-04-19T08:36:15.279Z,6.13
2023-04-19T08:39:05.467Z,6.27
2023-04-19T08:41:38.337Z,8.43
2023-04-19T08:44:08.659Z,5.93
2023-04-19T08:46:37.062Z,7.70
2023-04-19T08:49:06.675Z,6.13
2023-04-19T08:51:43.096Z,6.85
2023-04-19T08:54:12.048Z,10.38
2023-04-19T08:57:20.691Z,6.55
2023-04-19T09:00:21.401Z,5.85
2023-04-19T09:02:51.699Z,5.57
2023-04-19T09:05:21.390Z,6.45
2023-04-19T09:07:53.704Z,7.30
2023-04-19T09:10:24.611Z,5.05
2023-04-19T09:13:07.332Z,6.63
2023-04-19T09:15:52.882Z,6.00
2023-04-19T09:18:21.146Z,5.90
2023-04-19T09:20:51.338Z,6.53
2023-04-19T09:23:19.765Z,5.47
2023-04-19T09:28:29.400Z,6.50
2023-04-19T09:31:03.492Z,6.80
2023-04-19T09:33:39.655Z,5.75
2023-04-19T09:36:08.623Z,5.57
2023-04-19T09:38:49.964Z,6.50
2023-04-19T09:41:18.125Z,6.00
2023-04-19T09:44:05.604Z,5.22
2023-04-19T09:46:36.769Z,6.03
2023-04-19T09:49:36.906Z,5.70
2023-04-19T09:52:14.640Z,6.18
2023-04-19T09:54:42.707Z,6.55
2023-04-19T09:57:10.749Z,7.35
2023-04-19T09:59:38.691Z,6.90
2023-04-19T10:02:07.484Z,7.00
2023-04-19T10:04:54.690Z,5.95
2023-04-19T10:07:31.098Z,6.57
2023-04-19T10:10:11.558Z,6.43
2023-04-19T10:13:07.557Z,4.97
2023-04-19T10:15:47.244Z,5.03
2023-04-19T10:18:20.620Z,5.28
2023-04-19T10:21:01.169Z,5.13
2023-04-19T10:23:29.568Z,5.13
2023-04-19T10:25:58.677Z,6.20
2023-04-19T10:28:31.185Z,5.40
2023-04-19T10:31:25.279Z,5.18
2023-04-19T10:33:55.520Z,5.45
2023-04-19T10:36:28.110Z,4.60
2023-04-19T10:38:56.266Z,5.30
2023-04-19T10:41:25.050Z,6.00
2023-04-19T10:43:56.199Z,5.68
2023-04-19T10:46:29.754Z,6.85
2023-04-19T10:49:02.221Z,5.30
2023-04-19T10:51:36.681Z,5.80
2023-04-19T10:54:09.089Z,5.18
2023-04-19T10:56:42.484Z,6.45
2023-04-19T10:59:21.588Z,6.20
2023-04-19T11:02:01.293Z,6.05
2023-04-19T11:04:36.004Z,6.03
2023-04-19T11:07:05.670Z,5.47
2023-04-19T11:09:42.593Z,6.05
2023-04-19T11:12:20.744Z,6.10
2023-04-19T11:14:57.670Z,5.85
2023-04-19T11:17:28.482Z,5.70
2023-04-19T11:20:13.594Z,5.80
2023-04-19T11:22:43.313Z,8.90
2023-04-19T11:25:19.627Z,6.15
2023-04-19T11:27:51.082Z,6.65
2023-04-19T11:30:23.491Z,6.45
2023-04-19T11:32:56.296Z,5.80
2023-04-19T11:35:28.827Z,5.93
2023-04-19T11:37:59.036Z,5.63
2023-04-19T11:40:27.375Z,5.80
2023-04-19T11:43:01.882Z,5.75
2023-04-19T11:45:35.430Z,5.75
2023-04-19T11:48:05.627Z,6.70
2023-04-19T11:50:41.929Z,6.25
2023-04-19T11:53:13.633Z,5.22
2023-04-19T11:55:46.701Z,5.32
2023-04-19T11:58:32.547Z,5.78
2023-04-19T12:01:08.956Z,8.43
2023-04-19T12:03:50.704Z,8.68
2023-04-19T12:06:29.308Z,6.43
2023-04-19T12:08:57.354Z,5.95
2023-04-19T12:11:26.971Z,5.10
2023-04-19T12:14:18.761Z,6.05
2023-04-19T12:16:47.214Z,6.78
2023-04-19T12:19:20.830Z,5.18
2023-04-19T12:21:50.415Z,5.55
2023-04-19T12:24:18.813Z,5.35
2023-04-19T12:26:56.254Z,5.93
2023-04-19T12:29:25.277Z,5.32
2023-04-19T12:31:53.593Z,6.35
2023-04-19T12:34:24.391Z,6.32
2023-04-19T12:36:53.242Z,5.50
2023-04-19T12:39:21.541Z,6.93
2023-04-19T12:41:49.881Z,4.85
2023-04-19T12:44:17.960Z,5.10
2023-04-19T12:46:45.950Z,5.07
2023-04-19T12:49:14.562Z,5.40
2023-04-19T12:51:42.847Z,6.05
2023-04-19T12:54:11.013Z,5.25
2023-04-19T12:56:39.271Z,6.18
2023-04-19T12:59:07.385Z,4.43
2023-04-19T13:01:36.485Z,5.35
2023-04-19T13:04:07.860Z,6.82
2023-04-19T13:06:39.527Z,6.07
2023-04-19T13:11:40.814Z,5.28
2023-04-19T13:14:09.254Z,6.63
2023-04-19T13:16:38.953Z,5.10
2023-04-19T13:19:06.973Z,5.43
2023-04-19T13:21:35.691Z,6.45
2023-04-19T13:24:03.461Z,5.60
2023-04-19T13:26:31.637Z,6.45
2023-04-19T13:28:59.961Z,5.60
2023-04-19T13:31:28.076Z,5.20
2023-04-19T13:33:56.858Z,5.68
2023-04-19T13:36:25.344Z,5.05
2023-04-19T13:38:54.450Z,5.47
2023-04-19T13:41:23.562Z,5.00
2023-04-19T13:43:51.635Z,4.60
2023-04-19T13:46:19.693Z,6.22
2023-04-19T13:48:47.530Z,5.60
2023-04-19T13:51:16.353Z,6.40
2023-04-19T13:53:44.208Z,5.30
2023-04-19T13:56:13.605Z,6.93
2023-04-19T13:58:41.742Z,6.60
2023-04-19T14:01:29.762Z,6.93
2023-04-19T14:03:58.037Z,5.95
2023-04-19T14:06:26.714Z,6.00
2023-04-19T14:08:55.368Z,5.90
2023-04-19T14:11:25.244Z,5.97
2023-04-19T14:13:53.618Z,6.22
2023-04-19T14:16:25.484Z,5.97
2023-04-19T14:18:53.648Z,5.55
2023-04-19T14:21:21.672Z,6.00
2023-04-19T14:23:49.748Z,6.28
2023-04-19T14:26:17.874Z,5.60
2023-04-19T14:28:45.802Z,7.05
2023-04-19T14:31:14.059Z,4.97
2023-04-19T14:33:42.636Z,5.72
2023-04-19T14:36:10.991Z,6.10
2023-04-19T14:38:41.919Z,6.25
2023-04-19T14:41:09.944Z,6.22
2023-04-19T14:43:38.016Z,6.40
2023-04-19T14:46:07.663Z,6.57
2023-04-19T14:48:35.958Z,5.68
2023-04-19T14:51:04.100Z,6.53
2023-04-19T14:53:34.012Z,6.93
2023-04-19T14:56:05.952Z,7.25
2023-04-19T14:58:33.931Z,7.40
2023-04-19T15:01:13.614Z,6.85
2023-04-19T15:03:42.958Z,7.85
2023-04-19T15:06:11.191Z,5.65
2023-04-19T15:08:39.284Z,6.05
2023-04-19T15:11:07.804Z,6.95
2023-04-19T15:13:36.610Z,6.60
2023-04-19T15:16:07.709Z,6.03
2023-04-19T15:18:36.089Z,8.93
2023-04-19T15:21:04.965Z,8.10
2023-04-19T15:23:55.447Z,6.65
2023-04-19T15:26:24.706Z,6.85
2023-04-19T15:28:54.489Z,7.68
2023-04-19T15:31:42.531Z,6.75
2023-04-19T15:34:12.128Z,8.07
2023-04-19T15:36:41.085Z,8.43
2023-04-19T15:39:10.778Z,9.50
2023-04-19T15:41:38.662Z,9.10
2023-04-19T15:44:08.546Z,8.98
2023-04-19T15:46:37.120Z,9.02
2023-04-19T15:49:06.194Z,11.30
2023-04-19T15:51:34.261Z,10.27
2023-04-19T15:54:02.317Z,10.20
2023-04-19T15:56:31.417Z,9.40
2023-04-19T15:58:59.785Z,9.88
2023-04-19T16:01:30.032Z,10.35
2023-04-19T16:03:58.154Z,9.15
2023-04-19T16:06:27.537Z,9.63
2023-04-19T16:08:55.905Z,12.35
2023-04-19T16:11:24.077Z,11.88
2023-04-19T16:14:11.926Z,12.85
2023-04-19T16:16:39.997Z,13.32
2023-04-19T16:19:17.320Z,12.63
2023-04-19T16:21:45.730Z,13.32
2023-04-19T16:24:13.656Z,12.05
2023-04-19T16:26:43.100Z,10.85
2023-04-19T16:29:12.467Z,11.15
2023-04-19T16:31:55.014Z,11.55
2023-04-19T16:34:25.561Z,14.85
2023-04-19T16:36:57.252Z,14.88
2023-04-19T16:39:25.829Z,15.07
2023-04-19T16:41:53.694Z,14.55
2023-04-19T16:44:23.771Z,15.23
2023-04-19T16:46:53.204Z,15.52
2023-04-19T16:49:28.549Z,16.42
2023-04-19T16:51:59.802Z,14.77
2023-04-19T16:54:28.149Z,12.07
2023-04-19T16:56:56.069Z,11.73
2023-04-19T16:59:27.680Z,14.98
2023-04-19T17:02:01.363Z,17.35
2023-04-19T17:04:34.889Z,19.35
2023-04-19T17:07:03.129Z,21.55
2023-04-19T17:09:55.063Z,19.08
2023-04-19T17:12:23.643Z,21.65
2023-04-19T17:14:53.782Z,16.10
2023-04-19T17:17:21.769Z,12.02
2023-04-19T17:19:49.708Z,9.50
2023-04-19T17:22:17.713Z,7.40
2023-04-19T17:24:45.987Z,7.68
2023-04-19T17:27:14.053Z,7.00
2023-04-19T17:29:42.375Z,7.95
2023-04-19T17:32:10.395Z,6.38
2023-04-19T17:34:40.556Z,6.82
2023-04-19T17:43:35.549Z,8.23
2023-04-19T17:50:47.033Z,8.50
2023-04-19T17:54:27.038Z,8.05
2023-04-19T17:56:55.150Z,7.20
2023-04-19T17:59:57.313Z,8.20
2023-04-19T18:03:36.363Z,8.02
2023-04-19T18:06:47.113Z,7.35
2023-04-19T18:13:49.159Z,8.48
2023-04-19T18:16:27.836Z,8.13
2023-04-19T18:19:03.538Z,9.73
2023-04-19T18:21:35.939Z,8.95
2023-04-19T18:24:04.990Z,9.57
2023-04-19T18:26:42.989Z,12.57
2023-04-19T18:29:13.298Z,15.45
2023-04-19T18:32:15.296Z,7.43
2023-04-19T18:34:44.200Z,7.10
2023-04-19T18:37:45.433Z,7.78
2023-04-19T18:40:22.810Z,7.55
2023-04-19T18:42:51.474Z,9.05
2023-04-19T18:45:26.287Z,7.53
2023-04-19T18:49:00.000Z,8.10
2023-04-19T18:52:39.466Z,9.43
2023-04-19T18:55:08.078Z,7.03
2023-04-19T18:57:43.798Z,7.30
2023-04-19T19:00:16.104Z,7.75
2023-04-19T19:02:52.883Z,7.75
2023-04-19T19:05:21.744Z,6.72
2023-04-19T19:07:50.758Z,7.43
2023-04-19T19:10:54.227Z,7.03
2023-04-19T19:13:14.877Z,7.60
2023-04-19T19:15:44.203Z,7.80
2023-04-19T19:18:14.805Z,7.32
2023-04-19T19:20:53.736Z,7.15
2023-04-19T19:23:35.426Z,7.07
2023-04-19T19:26:18.861Z,7.28
2023-04-19T19:28:47.802Z,8.15
2023-04-19T19:31:16.321Z,6.72
2023-04-19T19:34:04.244Z,8.10
2023-04-19T19:36:40.645Z,6.70
2023-04-19T19:39:08.615Z,7.18
2023-04-19T19:42:04.634Z,6.88
2023-04-19T19:44:25.999Z,7.68
2023-04-19T19:46:53.970Z,8.38
2023-04-19T19:49:29.021Z,7.32
2023-04-19T19:52:03.281Z,8.88
2023-04-19T19:55:44.854Z,9.30
2023-04-19T19:58:39.229Z,9.95
2023-04-19T20:01:03.589Z,9.13
2023-04-19T20:03:37.405Z,9.00
2023-04-19T20:08:43.693Z,9.48
2023-04-19T20:11:19.571Z,8.82
2023-04-19T20:13:47.898Z,6.43
2023-04-19T20:16:18.409Z,7.25
2023-04-19T20:18:50.233Z,7.03
2023-04-19T20:21:19.822Z,6.53
2023-04-19T20:23:49.829Z,8.07
2023-04-19T20:26:18.667Z,7.32
2023-04-19T20:28:46.625Z,6.97
2023-04-19T20:31:16.053Z,7.47
2023-04-19T20:33:46.207Z,7.72
2023-04-19T20:36:14.674Z,7.55
2023-04-19T20:38:43.101Z,6.97
2023-04-19T20:41:18.352Z,7.03
2023-04-19T20:48:28.813Z,7.40
2023-04-19T20:52:37.020Z,7.38
2023-04-19T20:55:09.308Z,7.20
2023-04-19T20:57:37.460Z,7.20
2023-04-19T21:00:09.061Z,7.32
2023-04-19T21:02:38.886Z,8.02
2023-04-19T21:05:07.265Z,7.45
2023-04-19T21:07:35.614Z,7.18
2023-04-19T21:10:07.024Z,7.88
2023-04-19T21:12:38.724Z,7.40
2023-04-19T21:15:07.323Z,6.88
2023-04-19T21:17:36.182Z,7.60
2023-04-19T21:20:11.991Z,7.13
2023-04-19T21:22:41.266Z,6.30
2023-04-19T21:25:10.567Z,7.88
2023-04-19T21:27:39.500Z,8.40
2023-04-19T21:30:09.426Z,7.30
2023-04-19T21:32:37.623Z,8.05
2023-04-19T21:35:07.519Z,7.75
2023-04-19T21:37:36.851Z,7.88
2023-04-19T21:40:09.323Z,8.57
2023-04-19T21:42:38.504Z,8.63
2023-04-19T21:45:07.289Z,7.15
2023-04-19T21:47:36.744Z,7.28
2023-04-19T21:50:05.467Z,7.53
2023-04-19T21:52:33.627Z,7.72
2023-04-19T21:55:01.736Z,7.80
2023-04-19T21:57:31.139Z,7.53
2023-04-19T22:00:00.738Z,8.43
2023-04-19T22:02:28.986Z,8.73
2023-04-19T22:05:00.420Z,7.55
2023-04-19T22:07:31.114Z,7.28
2023-04-19T22:10:01.384Z,7.70
2023-04-19T22:12:29.450Z,7.30
2023-04-19T22:14:58.251Z,7.00
2023-04-19T22:17:27.850Z,7.80
2023-04-19T22:19:55.932Z,7.20
2023-04-19T22:22:24.398Z,7.15
2023-04-19T22:24:56.989Z,6.90
2023-04-19T22:27:28.969Z,7.07
2023-04-19T22:29:56.805Z,7.32
2023-04-19T22:32:26.041Z,7.07
2023-04-19T22:34:56.999Z,6.32
2023-04-19T22:37:25.203Z,6.45
2023-04-19T22:39:53.444Z,7.40
2023-04-19T22:42:21.293Z,6.68
2023-04-19T22:44:49.856Z,6.47
2023-04-19T22:47:18.276Z,6.85
2023-04-19T22:49:46.862Z,7.95
2023-04-19T22:52:14.911Z,7.15
2023-04-19T22:54:42.972Z,8.20
2023-04-19T22:57:12.274Z,6.10
2023-04-19T22:59:40.555Z,6.63
2023-04-19T23:02:08.836Z,7.00
2023-04-19T23:04:38.142Z,7.00
2023-04-19T23:07:07.208Z,6.60
2023-04-19T23:09:39.396Z,6.97
2023-04-19T23:12:08.583Z,5.93
2023-04-19T23:14:38.892Z,5.68
2023-04-19T23:17:08.576Z,7.07
2023-04-19T23:19:37.874Z,8.90
2023-04-19T23:22:07.036Z,7.28
2023-04-19T23:24:38.997Z,7.35
2023-04-19T23:27:07.122Z,6.82
2023-04-19T23:29:35.253Z,6.38
2023-04-19T23:32:03.269Z,6.13
2023-04-19T23:34:31.510Z,6.90
2023-04-19T23:36:59.774Z,7.85
2023-04-19T23:39:27.735Z,6.88
2023-04-19T23:41:56.538Z,6.93
2023-04-19T23:44:28.588Z,6.70
2023-04-19T23:46:56.942Z,6.75
2023-04-19T23:49:25.184Z,5.78
2023-04-19T23:51:53.159Z,6.50
2023-04-19T23:54:22.709Z,6.25
2023-04-19T23:56:50.802Z,6.00
2023-04-19T23:59:19.536Z,6.50
